SMJPSOCA

Guest
Details From SMJP - Paramaribo Johan A Pengel Intl
To SOCA - Cayenne Rochambeau
Flight Number -
Tags decoded
Created
Modified
Stats Distance 173 nm / 321 km
Max Altitude 0 ft / 0 m
Waypoints 2
Social Downloads 1
Likes 0
Share VATSIM

Download

Looking for another format? Having issues loading an existing format? Contact us
Advertisement - Login to hide

Notes

Requested: SMJP D100K GAVOT SOCA Unmatched points: D100K GAVOT

Route

SMJP SOCA

ID Type Via Altitude (ft/m) Position (lat/lon) Dist (leg/tot) Name
O SMJP APT - 0 / 0 5.45283 / -55.18778 - / 0 nm Paramaribo Johan A Pengel Intl
O SOCA APT - 0 / 0 4.81981 / -52.36045 173 / 173 nm Cayenne Rochambeau

Altitude Profile

Advertisement - Login to hide

Weather


0- 5 10 15 20 25 30 35+ Temperature / °C

Clouds and Precipitation
Forecast for 2019-02-18 00:00 UTC. Updated 4 hours ago

Ground ~20,000 ft ~40,000 ft Winds

SMJP

Details ICAO SMJP (PBM)
Name Paramaribo Johan Adolf Pengel Intl
Region Suriname
Timezone America/Paramaribo (UTC-3.0)
Stats Elevation 59 ft / 18 m (AMSL)
Location 5.452850° -55.187800°
Runways 1
Magnetic Variation 17.592° W

METAR

SMJP 180100Z 06005KT CAVOK 24/22 Q1015 NOSIG

Decode

TAF

Not found

Departure Runways

ID Width Length Bearing (true/mag) Surface Threshold Overrun Markings Lighting
11 149 ft / 46 m 12,390 ft / 3,777 m 89.68° / 107.28° ASPHALT 476 ft / 145 m 0 ft / 0 m APP CENTERLINE EDGE THRESHOLD MALSF
29 149 ft / 46 m 12,390 ft / 3,777 m 269.69° / 287.28° ASPHALT 499 ft / 152 m 0 ft / 0 m APP CENTERLINE EDGE THRESHOLD MALSF

SOCA

Details ICAO SOCA (CAY)
Name Cayenne, Felix Eboue Intl
Region French Guiana
Timezone America/Cayenne (UTC-3.0)
Stats Elevation 25 ft / 8 m (AMSL)
Location 4.820030° -52.361100°
Runways 1
Magnetic Variation 18.412° W

METAR

SOCA 180130Z AUTO 03008KT 9999 FEW025 BKN049 OVC060 27/22 Q1014 TEMPO 4000 SHRA SCT015TCU

Decode

TAF

TAF SOCA 171600Z 1718/1818 05010KT 9999 FEW027 PROB30 TEMPO 1803/1812 4000 SHRA SCT012TCU

Decode

Destination Runways

ID Width Length Bearing (true/mag) Surface Threshold Overrun Markings Lighting
08 148 ft / 45 m 10,489 ft / 3,197 m 65.20° / 83.61° ASPHALT 0 ft / 0 m 0 ft / 0 m PREC-APP CENTERLINE EDGE THRESHOLD MALSR TDZ REIL-OMNI
26 148 ft / 45 m 10,489 ft / 3,197 m 245.20° / 263.61° ASPHALT 0 ft / 0 m 0 ft / 0 m APP CENTERLINE EDGE THRESHOLD REIL-OMNI

Popular Alternatives